sensor_id;sensor_type;location;lat;lon;timestamp;pressure;altitude;pressure_sealevel;temperature;humidity
11302;BME280;5706;50.650;13.380;2022-10-16T15:41:01;56318.28;;;-140.63;59.08
11302;BME280;5706;50.650;13.380;2022-10-16T15:43:30;56294.44;;;-140.63;59.29
11302;BME280;5706;50.650;13.380;2022-10-16T15:46:00;56346.13;;;-140.63;60.25
11302;BME280;5706;50.650;13.380;2022-10-16T15:48:31;56330.22;;;-140.63;60.80
11302;BME280;5706;50.650;13.380;2022-10-16T15:51:00;56383.91;;;-140.63;60.76
11302;BME280;5706;50.650;13.380;2022-10-16T15:53:31;56324.25;;;-140.63;61.66
11302;BME280;5706;50.650;13.380;2022-10-16T15:56:02;56364.03;;;-140.63;61.97
11302;BME280;5706;50.650;13.380;2022-10-16T15:58:30;56356.06;;;-140.63;62.00
11302;BME280;5706;50.650;13.380;2022-10-16T16:00:59;56381.91;;;-140.63;61.76
11302;BME280;5706;50.650;13.380;2022-10-16T16:03:30;56383.91;;;-140.63;62.02
11302;BME280;5706;50.650;13.380;2022-10-16T16:06:17;56391.84;;;-140.63;62.17
11302;BME280;5706;50.650;13.380;2022-10-16T16:08:58;56344.13;;;-140.63;62.31
11302;BME280;5706;50.650;13.380;2022-10-16T16:11:32;56346.13;;;-140.63;62.37
11302;BME280;5706;50.650;13.380;2022-10-16T16:14:04;56377.94;;;-140.63;63.01
11302;BME280;5706;50.650;13.380;2022-10-16T16:16:32;56350.09;;;-140.63;63.57
11302;BME280;5706;50.650;13.380;2022-10-16T16:19:10;56377.94;;;-140.63;65.05
11302;BME280;5706;50.650;13.380;2022-10-16T16:21:38;56379.94;;;-140.63;64.22
11302;BME280;5706;50.650;13.380;2022-10-16T16:24:06;56366.00;;;-140.63;64.16
11302;BME280;5706;50.650;13.380;2022-10-16T16:26:36;56379.94;;;-140.63;64.82
11302;BME280;5706;50.650;13.380;2022-10-16T16:29:09;56381.91;;;-140.63;64.47
11302;BME280;5706;50.650;13.380;2022-10-16T16:31:39;56385.88;;;-140.63;64.95
11302;BME280;5706;50.650;13.380;2022-10-16T16:34:07;56338.16;;;-140.63;65.33
11302;BME280;5706;50.650;13.380;2022-10-16T16:36:35;56387.88;;;-140.63;65.85
11302;BME280;5706;50.650;13.380;2022-10-16T16:39:05;56350.09;;;-140.63;66.21
11302;BME280;5706;50.650;13.380;2022-10-16T16:41:49;56387.88;;;-140.63;66.28
11302;BME280;5706;50.650;13.380;2022-10-16T16:44:18;56350.09;;;-140.63;66.91
11302;BME280;5706;50.650;13.380;2022-10-16T16:46:57;56387.88;;;-140.63;68.09
11302;BME280;5706;50.650;13.380;2022-10-16T16:49:45;56389.88;;;-140.63;68.21
11302;BME280;5706;50.650;13.380;2022-10-16T16:52:28;56369.97;;;-140.63;68.14
11302;BME280;5706;50.650;13.380;2022-10-16T16:55:02;56381.91;;;-140.63;68.06
11302;BME280;5706;50.650;13.380;2022-10-16T16:57:31;56381.91;;;-140.63;68.42
11302;BME280;5706;50.650;13.380;2022-10-16T16:59:59;56385.88;;;-140.63;68.28
11302;BME280;5706;50.650;13.380;2022-10-16T17:02:30;56395.84;;;-140.63;68.49
11302;BME280;5706;50.650;13.380;2022-10-16T17:05:19;56429.63;;;-140.63;69.67
11302;BME280;5706;50.650;13.380;2022-10-16T17:07:47;56443.56;;;-140.63;69.09
11302;BME280;5706;50.650;13.380;2022-10-16T17:10:15;56387.88;;;-140.63;69.38
11302;BME280;5706;50.650;13.380;2022-10-16T17:12:44;56371.97;;;-140.63;69.07
11302;BME280;5706;50.650;13.380;2022-10-16T17:15:11;56411.75;;;-140.63;69.59
11302;BME280;5706;50.650;13.380;2022-10-16T17:17:39;56433.59;;;-140.63;69.31
11302;BME280;5706;50.650;13.380;2022-10-16T17:20:07;56419.69;;;-140.63;70.28
11302;BME280;5706;50.650;13.380;2022-10-16T17:22:35;56401.78;;;-140.63;70.52
11302;BME280;5706;50.650;13.380;2022-10-16T17:25:04;56369.97;;;-140.63;70.11
11302;BME280;5706;50.650;13.380;2022-10-16T17:27:32;56411.75;;;-140.63;70.30
11302;BME280;5706;50.650;13.380;2022-10-16T17:30:03;56423.66;;;-140.63;70.80
11302;BME280;5706;50.650;13.380;2022-10-16T17:32:31;56397.81;;;-140.63;69.97
11302;BME280;5706;50.650;13.380;2022-10-16T17:34:59;56387.88;;;-140.63;71.70
11302;BME280;5706;50.650;13.380;2022-10-16T17:37:28;56413.72;;;-140.63;71.44
11302;BME280;5706;50.650;13.380;2022-10-16T17:39:55;56403.78;;;-140.63;71.42
11302;BME280;5706;50.650;13.380;2022-10-16T17:42:23;56385.88;;;-140.63;71.22
11302;BME280;5706;50.650;13.380;2022-10-16T17:44:51;56399.81;;;-140.63;70.85
11302;BME280;5706;50.650;13.380;2022-10-16T17:47:20;56393.84;;;-140.63;70.95
11302;BME280;5706;50.650;13.380;2022-10-16T17:49:47;56407.75;;;-140.63;71.13
11302;BME280;5706;50.650;13.380;2022-10-16T17:52:15;56431.63;;;-140.63;71.58
11302;BME280;5706;50.650;13.380;2022-10-16T17:54:43;56405.78;;;-140.63;71.37
11302;BME280;5706;50.650;13.380;2022-10-16T17:57:10;56413.72;;;-140.63;72.08
11302;BME280;5706;50.650;13.380;2022-10-16T17:59:38;56393.84;;;-140.63;71.70
11302;BME280;5706;50.650;13.380;2022-10-16T18:02:06;56417.69;;;-140.63;71.83
11302;BME280;5706;50.650;13.380;2022-10-16T18:04:36;56423.66;;;-140.63;71.98
11302;BME280;5706;50.650;13.380;2022-10-16T18:07:03;56403.78;;;-140.63;72.03
11302;BME280;5706;50.650;13.380;2022-10-16T18:09:31;56385.88;;;-140.63;72.08
11302;BME280;5706;50.650;13.380;2022-10-16T18:11:59;56419.69;;;-140.63;71.93
11302;BME280;5706;50.650;13.380;2022-10-16T18:14:28;56403.78;;;-140.63;72.28
11302;BME280;5706;50.650;13.380;2022-10-16T18:16:57;56421.69;;;-140.63;72.25
11302;BME280;5706;50.650;13.380;2022-10-16T18:19:25;56417.69;;;-140.63;72.15
11302;BME280;5706;50.650;13.380;2022-10-16T18:21:54;56409.75;;;-140.63;72.74
11302;BME280;5706;50.650;13.380;2022-10-16T18:24:23;56395.84;;;-140.63;72.18
11302;BME280;5706;50.650;13.380;2022-10-16T18:26:53;56413.72;;;-140.63;71.93
11302;BME280;5706;50.650;13.380;2022-10-16T18:29:22;56419.69;;;-140.63;72.08
11302;BME280;5706;50.650;13.380;2022-10-16T18:31:52;56399.81;;;-140.63;72.44
11302;BME280;5706;50.650;13.380;2022-10-16T18:34:20;56379.94;;;-140.63;72.08
11302;BME280;5706;50.650;13.380;2022-10-16T18:36:51;56407.75;;;-140.63;72.97
11302;BME280;5706;50.650;13.380;2022-10-16T18:39:21;56423.66;;;-140.63;72.48
11302;BME280;5706;50.650;13.380;2022-10-16T18:41:49;56407.75;;;-140.63;72.88
11302;BME280;5706;50.650;13.380;2022-10-16T18:44:19;56389.88;;;-140.63;72.80
11302;BME280;5706;50.650;13.380;2022-10-16T18:46:47;56393.84;;;-140.63;72.46
11302;BME280;5706;50.650;13.380;2022-10-16T18:49:17;56375.94;;;-140.63;72.07
11302;BME280;5706;50.650;13.380;2022-10-16T18:51:44;56393.84;;;-140.63;72.11
11302;BME280;5706;50.650;13.380;2022-10-16T18:54:14;56417.69;;;-140.63;71.99
11302;BME280;5706;50.650;13.380;2022-10-16T18:56:41;56415.72;;;-140.63;73.28
11302;BME280;5706;50.650;13.380;2022-10-16T18:59:09;56437.59;;;-140.63;72.40
11302;BME280;5706;50.650;13.380;2022-10-16T19:01:37;56405.78;;;-140.63;71.86
11302;BME280;5706;50.650;13.380;2022-10-16T19:04:06;56385.88;;;-140.63;72.22
11302;BME280;5706;50.650;13.380;2022-10-16T19:06:37;56377.94;;;-140.63;72.23
11302;BME280;5706;50.650;13.380;2022-10-16T19:09:06;56427.66;;;-140.63;72.57
11302;BME280;5706;50.650;13.380;2022-10-16T19:11:35;56427.66;;;-140.63;72.27
11302;BME280;5706;50.650;13.380;2022-10-16T19:14:03;56423.66;;;-140.63;72.30
11302;BME280;5706;50.650;13.380;2022-10-16T19:16:32;56387.88;;;-140.63;72.93
11302;BME280;5706;50.650;13.380;2022-10-16T19:19:03;56393.84;;;-140.63;72.93
11302;BME280;5706;50.650;13.380;2022-10-16T19:21:34;56419.69;;;-140.63;73.44
11302;BME280;5706;50.650;13.380;2022-10-16T19:24:05;56379.94;;;-140.63;72.55
11302;BME280;5706;50.650;13.380;2022-10-16T19:26:35;56385.88;;;-140.63;72.67
11302;BME280;5706;50.650;13.380;2022-10-16T19:29:03;56409.75;;;-140.63;72.58
11302;BME280;5706;50.650;13.380;2022-10-16T19:31:32;56425.66;;;-140.63;72.28
11302;BME280;5706;50.650;13.380;2022-10-16T19:34:01;56391.84;;;-140.63;72.90
11302;BME280;5706;50.650;13.380;2022-10-16T19:36:32;56435.59;;;-140.63;72.98
11302;BME280;5706;50.650;13.380;2022-10-16T19:39:03;56433.59;;;-140.63;72.50
11302;BME280;5706;50.650;13.380;2022-10-16T19:41:35;56411.75;;;-140.63;72.02
11302;BME280;5706;50.650;13.380;2022-10-16T19:44:05;56421.69;;;-140.63;72.41
11302;BME280;5706;50.650;13.380;2022-10-16T19:46:34;56405.78;;;-140.63;73.45
11302;BME280;5706;50.650;13.380;2022-10-16T19:49:04;56403.78;;;-140.63;72.87
11302;BME280;5706;50.650;13.380;2022-10-16T19:51:33;56397.81;;;-140.63;72.40
11302;BME280;5706;50.650;13.380;2022-10-16T19:54:03;56433.59;;;-140.63;72.23
11302;BME280;5706;50.650;13.380;2022-10-16T19:56:35;56373.97;;;-140.63;71.55
11302;BME280;5706;50.650;13.380;2022-10-16T19:59:05;56405.78;;;-140.63;71.86
11302;BME280;5706;50.650;13.380;2022-10-16T20:01:34;56389.88;;;-140.63;71.95
11302;BME280;5706;50.650;13.380;2022-10-16T20:04:02;56425.66;;;-140.63;72.22
11302;BME280;5706;50.650;13.380;2022-10-16T20:06:29;56417.69;;;-140.63;72.83
11302;BME280;5706;50.650;13.380;2022-10-16T20:08:57;56397.81;;;-140.63;72.05
11302;BME280;5706;50.650;13.380;2022-10-16T20:11:27;56445.53;;;-140.63;72.18
11302;BME280;5706;50.650;13.380;2022-10-16T20:13:58;56405.78;;;-140.63;72.28
11302;BME280;5706;50.650;13.380;2022-10-16T20:16:26;56417.69;;;-140.63;72.24
11302;BME280;5706;50.650;13.380;2022-10-16T20:18:55;56421.69;;;-140.63;72.41
11302;BME280;5706;50.650;13.380;2022-10-16T20:21:25;56366.00;;;-140.63;72.15
11302;BME280;5706;50.650;13.380;2022-10-16T20:23:55;56407.75;;;-140.63;72.66
11302;BME280;5706;50.650;13.380;2022-10-16T20:26:24;56401.78;;;-140.63;71.67
11302;BME280;5706;50.650;13.380;2022-10-16T20:28:53;56401.78;;;-140.63;71.80
11302;BME280;5706;50.650;13.380;2022-10-16T20:31:24;56413.72;;;-140.63;71.78
11302;BME280;5706;50.650;13.380;2022-10-16T20:33:55;56379.94;;;-140.63;72.51
11302;BME280;5706;50.650;13.380;2022-10-16T20:36:25;56379.94;;;-140.63;72.33
11302;BME280;5706;50.650;13.380;2022-10-16T20:38:55;56409.75;;;-140.63;72.21
11302;BME280;5706;50.650;13.380;2022-10-16T20:41:23;56397.81;;;-140.63;72.71
11302;BME280;5706;50.650;13.380;2022-10-16T20:43:51;56403.78;;;-140.63;72.49
11302;BME280;5706;50.650;13.380;2022-10-16T20:46:23;56393.84;;;-140.63;72.99
11302;BME280;5706;50.650;13.380;2022-10-16T20:48:53;56405.78;;;-140.63;72.74
11302;BME280;5706;50.650;13.380;2022-10-16T20:51:24;56385.88;;;-140.63;72.88
11302;BME280;5706;50.650;13.380;2022-10-16T20:53:55;56387.88;;;-140.63;72.80
11302;BME280;5706;50.650;13.380;2022-10-16T20:56:24;56393.84;;;-140.63;72.96
11302;BME280;5706;50.650;13.380;2022-10-16T20:58:54;56385.88;;;-140.63;73.03
11302;BME280;5706;50.650;13.380;2022-10-16T21:01:26;56385.88;;;-140.63;72.87
11302;BME280;5706;50.650;13.380;2022-10-16T21:03:56;56421.69;;;-140.63;73.03
11302;BME280;5706;50.650;13.380;2022-10-16T21:06:26;56407.75;;;-140.63;72.71
11302;BME280;5706;50.650;13.380;2022-10-16T21:08:54;56371.97;;;-140.63;73.20
11302;BME280;5706;50.650;13.380;2022-10-16T21:11:25;56401.78;;;-140.63;73.58
11302;BME280;5706;50.650;13.380;2022-10-16T21:13:55;56348.13;;;-140.63;73.28
11302;BME280;5706;50.650;13.380;2022-10-16T21:16:29;56411.75;;;-140.63;73.28
11302;BME280;5706;50.650;13.380;2022-10-16T21:19:00;56401.78;;;-140.63;72.41
11302;BME280;5706;50.650;13.380;2022-10-16T21:21:31;56415.72;;;-140.63;74.08
11302;BME280;5706;50.650;13.380;2022-10-16T21:24:00;56395.84;;;-140.63;74.08
11302;BME280;5706;50.650;13.380;2022-10-16T21:26:29;56411.75;;;-140.63;73.94
11302;BME280;5706;50.650;13.380;2022-10-16T21:28:59;56381.91;;;-140.63;73.95
11302;BME280;5706;50.650;13.380;2022-10-16T21:31:31;56443.56;;;-140.63;74.13
11302;BME280;5706;50.650;13.380;2022-10-16T21:34:00;56417.69;;;-140.63;74.07
11302;BME280;5706;50.650;13.380;2022-10-16T21:36:30;56393.84;;;-140.63;74.31
11302;BME280;5706;50.650;13.380;2022-10-16T21:39:00;56387.88;;;-140.63;74.27
11302;BME280;5706;50.650;13.380;2022-10-16T21:41:30;56387.88;;;-140.63;74.56
11302;BME280;5706;50.650;13.380;2022-10-16T21:43:58;56403.78;;;-140.63;74.86
11302;BME280;5706;50.650;13.380;2022-10-16T21:46:27;56435.59;;;-140.63;74.44
11302;BME280;5706;50.650;13.380;2022-10-16T21:48:59;56387.88;;;-140.63;74.29
11302;BME280;5706;50.650;13.380;2022-10-16T21:51:30;56381.91;;;-140.63;74.56
11302;BME280;5706;50.650;13.380;2022-10-16T21:54:00;56415.72;;;-140.63;74.98
11302;BME280;5706;50.650;13.380;2022-10-16T21:56:30;56356.06;;;-140.63;75.12
11302;BME280;5706;50.650;13.380;2022-10-16T21:58:58;56405.78;;;-140.63;75.09
11302;BME280;5706;50.650;13.380;2022-10-16T22:01:26;56409.75;;;-140.63;74.46
11302;BME280;5706;50.650;13.380;2022-10-16T22:03:56;56387.88;;;-140.63;75.87
11302;BME280;5706;50.650;13.380;2022-10-16T22:06:26;56419.69;;;-140.63;75.51
11302;BME280;5706;50.650;13.380;2022-10-16T22:08:55;56387.88;;;-140.63;74.96
11302;BME280;5706;50.650;13.380;2022-10-16T22:11:26;56405.78;;;-140.63;74.89
11302;BME280;5706;50.650;13.380;2022-10-16T22:14:01;56403.78;;;-140.63;75.33
11302;BME280;5706;50.650;13.380;2022-10-16T22:16:29;56431.63;;;-140.63;75.25
11302;BME280;5706;50.650;13.380;2022-10-16T22:18:58;56419.69;;;-140.63;75.45
11302;BME280;5706;50.650;13.380;2022-10-16T22:21:29;56389.88;;;-140.63;75.39
11302;BME280;5706;50.650;13.380;2022-10-16T22:23:57;56385.88;;;-140.63;75.26
11302;BME280;5706;50.650;13.380;2022-10-16T22:26:26;56405.78;;;-140.63;76.25
11302;BME280;5706;50.650;13.380;2022-10-16T22:28:54;56375.94;;;-140.63;75.47
11302;BME280;5706;50.650;13.380;2022-10-16T22:31:21;56445.53;;;-140.63;75.94
11302;BME280;5706;50.650;13.380;2022-10-16T22:33:53;56389.88;;;-140.63;75.17
11302;BME280;5706;50.650;13.380;2022-10-16T22:36:23;56387.88;;;-140.63;74.80
11302;BME280;5706;50.650;13.380;2022-10-16T22:38:51;56409.75;;;-140.63;75.43
11302;BME280;5706;50.650;13.380;2022-10-16T22:41:19;56425.66;;;-140.63;74.87
11302;BME280;5706;50.650;13.380;2022-10-16T22:43:48;56403.78;;;-140.63;74.86
11302;BME280;5706;50.650;13.380;2022-10-16T22:46:18;56381.91;;;-140.63;76.02
11302;BME280;5706;50.650;13.380;2022-10-16T22:48:48;56393.84;;;-140.63;75.28
11302;BME280;5706;50.650;13.380;2022-10-16T22:51:16;56389.88;;;-140.63;75.48
11302;BME280;5706;50.650;13.380;2022-10-16T22:53:45;56409.75;;;-140.63;75.39
11302;BME280;5706;50.650;13.380;2022-10-16T22:56:16;56433.59;;;-140.63;75.01
11302;BME280;5706;50.650;13.380;2022-10-16T22:58:44;56423.66;;;-140.63;75.06
11302;BME280;5706;50.650;13.380;2022-10-16T23:01:14;56407.75;;;-140.63;75.58
11302;BME280;5706;50.650;13.380;2022-10-16T23:03:43;56368.00;;;-140.63;75.34
11302;BME280;5706;50.650;13.380;2022-10-16T23:06:11;56379.94;;;-140.63;75.19
11302;BME280;5706;50.650;13.380;2022-10-16T23:08:39;56413.72;;;-140.63;75.10
11302;BME280;5706;50.650;13.380;2022-10-16T23:11:11;56407.75;;;-140.63;75.69
11302;BME280;5706;50.650;13.380;2022-10-16T23:13:40;56427.66;;;-140.63;75.24
11302;BME280;5706;50.650;13.380;2022-10-16T23:16:11;56371.97;;;-140.63;74.24
11302;BME280;5706;50.650;13.380;2022-10-16T23:18:40;56379.94;;;-140.63;75.64
11302;BME280;5706;50.650;13.380;2022-10-16T23:21:10;56395.84;;;-140.63;74.86
11302;BME280;5706;50.650;13.380;2022-10-16T23:23:40;56419.69;;;-140.63;75.82
11302;BME280;5706;50.650;13.380;2022-10-16T23:26:11;56407.75;;;-140.63;75.01
11302;BME280;5706;50.650;13.380;2022-10-16T23:28:41;56403.78;;;-140.63;74.64
11302;BME280;5706;50.650;13.380;2022-10-16T23:31:10;56419.69;;;-140.63;75.14
11302;BME280;5706;50.650;13.380;2022-10-16T23:33:39;56399.81;;;-140.63;75.09
11302;BME280;5706;50.650;13.380;2022-10-16T23:36:09;56435.59;;;-140.63;74.51
11302;BME280;5706;50.650;13.380;2022-10-16T23:38:38;56411.75;;;-140.63;75.67
11302;BME280;5706;50.650;13.380;2022-10-16T23:41:06;56431.63;;;-140.63;76.75
11302;BME280;5706;50.650;13.380;2022-10-16T23:43:35;56401.78;;;-140.63;76.04
11302;BME280;5706;50.650;13.380;2022-10-16T23:46:03;56439.56;;;-140.63;75.26
11302;BME280;5706;50.650;13.380;2022-10-16T23:48:31;56421.69;;;-140.63;75.06
11302;BME280;5706;50.650;13.380;2022-10-16T23:50:59;56439.56;;;-140.63;75.08
11302;BME280;5706;50.650;13.380;2022-10-16T23:53:27;56413.72;;;-140.63;74.53
11302;BME280;5706;50.650;13.380;2022-10-16T23:55:54;56417.69;;;-140.63;74.96
11302;BME280;5706;50.650;13.380;2022-10-16T23:58:22;56415.72;;;-140.63;74.63
